Weather reports worldwide

Advertisment
Nordseeboje III, Germany (10006): temperature & dewpoint: 24.10.2020 10:00:00 - 30.10.2020 10:00:00 (CET)Nordseeboje III, Germany (10006): water temperature: 24.10.2020 10:00:00 - 30.10.2020 10:00:00 (CET)Nordseeboje III, Germany (10006): wind speed: 24.10.2020 10:00:00 - 30.10.2020 10:00:00 (CET)Nordseeboje III, Germany (10006): wind direction: 24.10.2020 10:00:00 - 30.10.2020 10:00:00 (CET)Nordseeboje III, Germany (10006): reduced air pressure: 24.10.2020 10:00:00 - 30.10.2020 10:00:00 (CET)
Date & Time tt [°C] td [°C] tw [°C] ff [km/h] ff [kn] dd ppp [hPa]
30.10.2020 10:00:00 14,2 13,0 13,7 47 26 W 1009,0
30.10.2020 09:00:00 14,2 13,0 13,7 44 24 W 1008,4
30.10.2020 08:00:00 13,5 13,4 13,7 41 22 WSW 1008,1
30.10.2020 07:00:00 13,4 13,4 13,7 41 22 WSW 1007,4
30.10.2020 06:00:00 13,5 13,5 13,8 42 23 WSW 1007,3
30.10.2020 05:00:00 13,5 13,4 13,7 46 25 WSW 1006,9
30.10.2020 04:00:00 13,4 13,4 13,7 45 24 WSW 1006,7
30.10.2020 03:00:00 13,5 13,5 13,7 42 23 WSW 1006,6
30.10.2020 02:00:00 13,5 13,2 13,7 40 22 WSW 1006,8
30.10.2020 01:00:00 13,5 13,2 13,7 35 19 WSW 1006,8
30.10.2020 00:00:00 12,9 12,7 13,7 36 19 SSW 1007,0
29.10.2020 23:00:00 12,0 11,4 13,8 42 23 S 1007,5
29.10.2020 22:00:00 12,0 11,0 13,8 41 22 S 1008,4
29.10.2020 21:00:00 11,7 10,7 13,7 44 24 SSW 1009,2
29.10.2020 20:00:00 11,5 9,7 13,7 32 17 SSW 1009,9
29.10.2020 19:00:00 12,0 8,5 13,8 31 17 SW 1010,4
29.10.2020 18:00:00 12,2 6,7 13,8 37 20 WSW 1010,4
29.10.2020 17:00:00 12,2 7,0 13,8 38 21 WSW 1010,5
29.10.2020 16:00:00 12,2 7,5 13,8 41 22 W 1010,4
29.10.2020 15:00:00 12,4 7,5 13,8 45 24 W 1009,9
29.10.2020 14:00:00 12,4 7,7 13,8 53 29 W 1009,4
29.10.2020 13:00:00 12,0 8,4 13,8 38 20 W 1008,9
29.10.2020 12:00:00 11,7 9,0 13,9 38 20 W 1008,4
29.10.2020 11:00:00 11,5 7,7 13,9 39 21 W 1007,6
29.10.2020 10:00:00 11,9 7,0 13,9 54 29 W 1006,5
29.10.2020 09:00:00 12,2 6,2 13,9 46 25 W 1005,4
29.10.2020 08:00:00 12,0 7,2 13,9 45 25 W 1004,3
29.10.2020 07:00:00 11,9 6,7 13,9 39 21 W 1003,3
29.10.2020 06:00:00 11,5 6,2 13,9 44 24 WNW 1002,4
29.10.2020 05:00:00 10,9 6,2 13,9 29 16 W 1001,5
29.10.2020 04:00:00 10,2 6,0 13,9 27 15 W 1000,9
29.10.2020 03:00:00 10,7 5,5 13,9 35 19 WSW 1000,2
29.10.2020 02:00:00 10,7 6,5 13,9 40 21 WNW 999,9
29.10.2020 01:00:00 10,2 7,0 13,9 45 25 WSW 999,3
29.10.2020 00:00:00 11,5 8,7 13,9 41 22 SW 998,8
28.10.2020 23:00:00 11,0 7,4 13,9 57 31 SW 998,7
28.10.2020 22:00:00 11,5 9,0 13,9 54 29 SSW 998,8
28.10.2020 21:00:00 11,9 9,0 14,0 49 26 SSW 999,7
28.10.2020 20:00:00 12,2 8,2 14,0 50 27 SW 999,8
28.10.2020 19:00:00 11,7 7,5 13,9 53 29 SSW 1000,0
28.10.2020 18:00:00 12,4 8,7 14,0 56 30 SW 999,9
28.10.2020 17:00:00 13,0 7,5 14,0 50 27 SW 999,8
28.10.2020 16:00:00 12,9 7,4 14,0 55 30 SW 1000,0
28.10.2020 15:00:00 12,9 7,7 14,0 56 30 SW 999,9
28.10.2020 14:00:00 12,2 8,7 14,0 50 27 SW 999,8
28.10.2020 13:00:00 11,7 8,7 14,0 51 28 SW 999,7
28.10.2020 12:00:00 12,4 8,0 14,0 59 32 SW 999,1
28.10.2020 11:00:00 13,2 7,2 14,0 52 28 SW 999,5
28.10.2020 10:00:00 13,2 8,7 14,0 46 25 SW 999,5
28.10.2020 09:00:00 12,7 6,7 14,0 50 27 SW 999,4
28.10.2020 08:00:00 12,5 6,7 14,0 51 28 SW 998,3
28.10.2020 07:00:00 12,5 7,4 14,0 52 28 SW 997,8
28.10.2020 06:00:00 12,7 7,4 14,0 42 23 WSW 997,8
28.10.2020 05:00:00 12,7 7,0 14,0 47 25 WSW 997,0
28.10.2020 04:00:00 13,0 7,7 14,0 54 29 WSW 996,7
28.10.2020 03:00:00 13,0 8,2 14,0 54 29 W 996,1
28.10.2020 02:00:00 13,2 8,5 14,0 52 28 W 995,1
28.10.2020 01:00:00 12,5 12,0 14,0 53 29 SW 993,8
28.10.2020 00:00:00 11,5 11,0 14,0 64 35 SSW 993,3
27.10.2020 23:00:00 10,9 10,9 14,0 61 33 S 993,8
27.10.2020 22:00:00 10,4 10,2 14,0 59 32 S 994,5
27.10.2020 21:00:00 11,7 9,5 14,1 59 32 S 995,6
27.10.2020 20:00:00 12,0 8,7 14,1 55 30 SSW 996,1
27.10.2020 19:00:00 11,4 8,4 14,1 55 30 SSW 996,9
27.10.2020 18:00:00 11,0 9,9 14,1 61 33 SSW 996,8
27.10.2020 17:00:00 12,0 8,7 14,1 55 30 SSW 997,4
27.10.2020 16:00:00 11,9 9,5 14,1 55 30 SSW 997,2
27.10.2020 15:00:00 10,0 5,5 14,1 48 26 SW 998,5
27.10.2020 14:00:00 10,2 5,9 14,1 54 29 SW 998,6
27.10.2020 13:00:00 11,7 6,7 14,1 44 24 SSW 998,5
27.10.2020 12:00:00 12,0 8,2 14,1 56 31 SW 998,1
27.10.2020 11:00:00 12,7 7,5 14,2 50 27 SW 997,9
27.10.2020 10:00:00 12,7 7,2 14,2 52 28 SW 997,3
27.10.2020 09:00:00 12,7 7,7 14,2 54 29 SW 997,1
27.10.2020 08:00:00 12,7 7,5 14,2 55 30 SW 996,7
27.10.2020 07:00:00 12,5 7,5 14,2 56 30 SW 995,9
27.10.2020 06:00:00 13,0 8,2 14,2 56 30 SW 996,0
27.10.2020 05:00:00 12,7 8,2 14,2 55 30 SW 995,4
27.10.2020 04:00:00 12,7 8,7 14,2 49 26 SW 995,1
27.10.2020 03:00:00 12,7 8,0 14,2 44 24 SW 995,8
27.10.2020 02:00:00 12,5 10,0 14,2 48 26 SSW 995,4
27.10.2020 01:00:00 11,0 8,0 14,2 56 30 SW 995,5
27.10.2020 00:00:00 12,0 9,0 14,2 51 27 SW 995,3
26.10.2020 23:00:00 11,9 8,5 14,2 57 31 SSW 995,1
26.10.2020 22:00:00 11,7 8,4 14,3 48 26 SSW 995,4
26.10.2020 21:00:00 10,4 7,7 14,3 54 29 SW 995,6
26.10.2020 20:00:00 12,0 8,2 14,3 56 30 S 995,3
26.10.2020 19:00:00 10,0 9,2 14,3 43 23 SSW 996,2
26.10.2020 18:00:00 10,2 8,5 14,4 39 21 S 996,2
26.10.2020 17:00:00 11,2 7,7 14,3 40 22 SSW 996,0
26.10.2020 16:00:00 11,0 8,2 14,3 40 21 SSW 996,3
26.10.2020 15:00:00 10,2 8,7 14,4 46 25 SSW 996,3
26.10.2020 14:00:00 11,9 8,2 14,4 46 25 SSW 996,0
26.10.2020 13:00:00 11,7 7,7 14,4 45 24 SSW 996,3
26.10.2020 12:00:00 12,0 8,7 14,3 42 23 SSW 996,4
26.10.2020 11:00:00 12,4 7,9 14,3 38 20 SSW 996,4
26.10.2020 10:00:00 12,0 9,4 14,4 40 22 SSW 996,6
26.10.2020 09:00:00 12,2 9,0 14,4 45 24 SSW 996,7
26.10.2020 08:00:00 12,0 8,9 14,4 40 21 SSW 996,2
26.10.2020 07:00:00 12,0 9,0 14,4 44 24 SSW 995,8
26.10.2020 06:00:00 12,2 9,7 14,4 37 20 SSW 996,1
26.10.2020 05:00:00 11,0 8,5 14,4 28 15 SSW 996,2
26.10.2020 04:00:00 12,7 10,0 14,4 40 22 SSW 996,0
26.10.2020 03:00:00 12,2 10,2 14,5 42 23 SW 996,2
26.10.2020 02:00:00 12,7 9,4 14,5 42 23 SSW 996,6
26.10.2020 01:00:00 12,7 9,5 14,5 42 23 SSW 996,7
26.10.2020 00:00:00 12,9 9,5 14,5 43 23 SSW 996,9
25.10.2020 23:00:00 12,7 9,2 14,5 45 24 SSW 996,8
25.10.2020 22:00:00 12,9 9,5 14,5 51 27 SSW 996,9
25.10.2020 21:00:00 13,2 9,9 14,5 46 25 SSW 996,9
25.10.2020 20:00:00 13,2 9,4 14,5 46 25 SSW 997,3
25.10.2020 19:00:00 13,2 9,7 14,5 46 25 SSW 997,6
25.10.2020 18:00:00 13,2 9,0 14,5 44 24 SSW 997,3
25.10.2020 17:00:00 13,4 8,5 14,5 39 21 SSW 997,3
25.10.2020 16:00:00 12,7 8,7 14,5 44 24 SSW 997,4
25.10.2020 15:00:00 13,7 8,4 14,6 38 21 SW 997,7
25.10.2020 14:00:00 13,7 9,4 14,6 38 21 SW 997,6
25.10.2020 13:00:00 13,7 10,2 14,6 37 20 SW 997,3
25.10.2020 12:00:00 13,7 11,5 14,6 49 26 SW 997,0
25.10.2020 11:00:00 13,4 11,2 14,6 50 27 SSW 996,9
25.10.2020 10:00:00 12,7 11,7 14,6 40 22 SW 996,4
25.10.2020 09:00:00 12,9 11,2 14,6 54 29 SSW 995,9
25.10.2020 08:00:00 13,2 11,7 14,6 59 32 SSW 995,8
25.10.2020 07:00:00 14,0 11,0 14,6 55 30 SSW 995,0
25.10.2020 06:00:00 14,2 12,0 14,6 55 30 SW 994,5
25.10.2020 05:00:00 15,0 12,9 14,6 64 34 SSW 994,1
25.10.2020 04:00:00 15,2 12,9 14,6 64 35 S 994,1
25.10.2020 03:00:00 15,2 12,9 14,6 64 35 S 994,8
25.10.2020 02:00:00 15,0 12,9 14,6 68 37 S 995,5
25.10.2020 01:00:00 - - - - - - -
25.10.2020 00:00:00 14,7 12,7 14,6 58 32 S 997,3
24.10.2020 23:00:00 14,5 12,9 14,6 56 30 S 998,5
24.10.2020 22:00:00 14,5 12,9 14,6 57 31 S 999,2
24.10.2020 21:00:00 14,2 12,7 14,6 55 30 S 999,9
24.10.2020 20:00:00 14,4 12,2 14,6 51 27 S 1000,6
24.10.2020 19:00:00 14,4 11,7 14,6 50 27 S 1001,8
24.10.2020 18:00:00 14,2 11,2 14,6 54 29 SSW 1002,2
24.10.2020 17:00:00 14,0 11,5 14,6 51 27 SSW 1003,1
24.10.2020 16:00:00 14,0 11,7 14,6 56 30 SSW 1003,5
24.10.2020 15:00:00 13,5 11,5 14,6 47 25 SSW 1004,3
24.10.2020 14:00:00 13,0 11,5 14,6 51 27 SSW 1004,9
24.10.2020 13:00:00 13,2 9,5 14,6 46 25 SSW 1005,3
24.10.2020 12:00:00 13,7 8,0 14,6 42 23 SW 1005,9
24.10.2020 11:00:00 13,0 6,5 14,6 45 24 SW 1006,1
24.10.2020 10:00:00 12,9 7,2 14,6 32 17 SW 1006,2

tt = temperature
td = dewpoint
tw = water temperature
ff = wind speed
dd = wind direction
ppp = reduced air pressure

Next stations